createdAt,value
2022-12-18T00:02:05.371Z,102878.00
2022-12-18T00:04:31.942Z,102871.91
2022-12-18T00:06:58.466Z,102862.41
2022-12-18T00:09:25.256Z,102861.44
2022-12-18T00:11:57.827Z,102854.56
2022-12-18T00:14:24.216Z,102856.22
2022-12-18T00:16:50.640Z,102852.03
2022-12-18T00:19:17.127Z,102857.13
2022-12-18T00:21:44.633Z,102856.97
2022-12-18T00:24:11.824Z,102862.00
2022-12-18T00:26:39.626Z,102872.31
2022-12-18T00:29:11.257Z,102874.00
2022-12-18T00:31:38.410Z,102870.44
2022-12-18T00:34:05.024Z,102862.81
2022-12-18T00:36:34.333Z,102855.94
2022-12-18T00:39:05.026Z,102855.88
2022-12-18T00:41:50.101Z,102852.28
2022-12-18T00:44:18.968Z,102842.81
2022-12-18T00:46:46.606Z,102856.22
2022-12-18T00:49:13.155Z,102857.81
2022-12-18T00:51:40.308Z,102846.69
2022-12-18T00:54:06.834Z,102852.56
2022-12-18T00:56:33.208Z,102852.72
2022-12-18T00:58:59.726Z,102847.66
2022-12-18T01:01:26.504Z,102847.66
2022-12-18T01:03:53.127Z,102849.16
2022-12-18T01:06:19.587Z,102850.03
2022-12-18T01:08:46.052Z,102844.94
2022-12-18T01:11:15.299Z,102848.16
2022-12-18T01:13:42.272Z,102841.34
2022-12-18T01:16:09.893Z,102843.97
2022-12-18T01:18:36.523Z,102849.91
2022-12-18T01:21:10.174Z,102850.78
2022-12-18T01:23:37.127Z,102847.44
2022-12-18T01:26:08.863Z,102856.69
2022-12-18T01:28:35.329Z,102855.75
2022-12-18T01:31:12.014Z,102859.16
2022-12-18T01:33:38.921Z,102854.75
2022-12-18T01:36:06.217Z,102862.38
2022-12-18T01:38:32.764Z,102872.56
2022-12-18T01:41:02.933Z,102862.19
2022-12-18T01:43:45.737Z,102870.63
2022-12-18T01:46:13.287Z,102873.84
2022-12-18T01:48:40.409Z,102877.06
2022-12-18T01:51:09.509Z,102866.88
2022-12-18T01:53:38.394Z,102871.09
2022-12-18T01:56:05.559Z,102874.41
2022-12-18T01:58:50.392Z,102861.59
2022-12-18T02:01:17.205Z,102870.72
2022-12-18T02:03:45.274Z,102873.13
2022-12-18T02:06:24.241Z,102878.09
2022-12-18T02:08:59.665Z,102883.84
2022-12-18T02:11:37.906Z,102887.22
2022-12-18T02:14:04.275Z,102881.19
2022-12-18T02:16:49.333Z,102884.41
2022-12-18T02:19:44.677Z,102881.84
2022-12-18T02:22:23.338Z,102893.63
2022-12-18T02:25:27.067Z,102888.53
2022-12-18T02:27:55.689Z,102890.06
2022-12-18T02:30:23.208Z,102897.63
2022-12-18T02:32:53.421Z,102894.22
2022-12-18T02:35:28.454Z,102894.13
2022-12-18T02:37:55.864Z,102896.63
2022-12-18T02:40:24.554Z,102887.25
2022-12-18T02:42:51.099Z,102876.16
2022-12-18T02:45:17.948Z,102880.38
2022-12-18T02:47:48.177Z,102881.16
2022-12-18T02:50:31.619Z,102869.28
2022-12-18T02:53:14.800Z,102870.06
2022-12-18T02:56:09.033Z,102867.47
2022-12-18T02:58:55.300Z,102862.25
2022-12-18T03:01:56.082Z,102859.50
2022-12-18T03:04:38.590Z,102854.41
2022-12-18T03:07:12.527Z,102846.72
2022-12-18T03:09:46.990Z,102843.31
2022-12-18T03:12:25.308Z,102853.50
2022-12-18T03:15:09.536Z,102848.28
2022-12-18T03:17:41.383Z,102848.22
2022-12-18T03:20:15.302Z,102843.91
2022-12-18T03:22:45.180Z,102840.38
2022-12-18T03:25:14.853Z,102836.84
2022-12-18T03:27:46.871Z,102835.97
2022-12-18T03:30:15.353Z,102829.09
2022-12-18T03:33:02.744Z,102832.34
2022-12-18T03:35:34.856Z,102830.63
2022-12-18T03:38:01.723Z,102830.44
2022-12-18T03:40:41.608Z,102818.59
2022-12-18T03:43:36.543Z,102813.50
2022-12-18T03:46:12.997Z,102807.50
2022-12-18T03:48:45.118Z,102810.84
2022-12-18T03:51:19.810Z,102809.91
2022-12-18T03:53:49.163Z,102813.16
2022-12-18T03:56:17.996Z,102814.75
2022-12-18T03:58:46.303Z,102814.63
2022-12-18T04:01:16.645Z,102811.16
2022-12-18T04:03:46.862Z,102799.19
2022-12-18T04:06:15.860Z,102795.72
2022-12-18T04:08:43.071Z,102795.56
2022-12-18T04:11:09.660Z,102803.19
2022-12-18T04:13:38.657Z,102799.69
2022-12-18T04:16:06.404Z,102790.38
2022-12-18T04:18:32.945Z,102786.81
2022-12-18T04:20:59.347Z,102777.47
2022-12-18T04:23:25.811Z,102784.28
2022-12-18T04:25:52.255Z,102775.72
2022-12-18T04:28:18.782Z,102769.69
2022-12-18T04:30:51.748Z,102774.72
2022-12-18T04:33:19.485Z,102778.91
2022-12-18T04:35:46.359Z,102772.13
2022-12-18T04:38:12.961Z,102780.50
2022-12-18T04:40:39.397Z,102773.63
2022-12-18T04:43:07.723Z,102779.53
2022-12-18T04:45:34.717Z,102777.78
2022-12-18T04:48:02.413Z,102787.94
2022-12-18T04:50:29.138Z,102796.34
2022-12-18T04:52:55.790Z,102797.94
2022-12-18T04:55:25.347Z,102800.41
2022-12-18T04:57:51.798Z,102806.22
2022-12-18T05:00:18.548Z,102807.09
2022-12-18T05:02:45.113Z,102810.44
2022-12-18T05:05:11.805Z,102822.19
2022-12-18T05:07:38.233Z,102821.25
2022-12-18T05:10:07.850Z,102823.78
2022-12-18T05:12:34.373Z,102828.84
2022-12-18T05:15:00.802Z,102830.50
2022-12-18T05:17:27.211Z,102836.47
2022-12-18T05:19:53.594Z,102839.88
2022-12-18T05:22:20.026Z,102842.31
2022-12-18T05:24:46.457Z,102842.31
2022-12-18T05:27:12.841Z,102847.41
2022-12-18T05:29:39.367Z,102854.16
2022-12-18T05:32:05.735Z,102855.81
2022-12-18T05:34:32.204Z,102853.28
2022-12-18T05:36:58.579Z,102854.97
2022-12-18T05:39:24.968Z,102855.75
2022-12-18T05:41:51.345Z,102837.03
2022-12-18T05:44:17.854Z,102835.38
2022-12-18T05:46:44.365Z,102830.25
2022-12-18T05:49:10.854Z,102828.56
2022-12-18T05:51:37.357Z,102828.47
2022-12-18T05:54:03.962Z,102825.00
2022-12-18T05:56:32.180Z,102826.59
2022-12-18T05:58:58.783Z,102818.03
2022-12-18T06:01:27.327Z,102821.41
2022-12-18T06:03:53.965Z,102822.13
2022-12-18T06:06:23.925Z,102819.50
2022-12-18T06:08:51.635Z,102812.69
2022-12-18T06:11:20.959Z,102815.94
2022-12-18T06:13:53.567Z,102802.31
2022-12-18T06:16:24.268Z,102803.91
2022-12-18T06:18:50.852Z,102797.81
2022-12-18T06:21:17.236Z,102796.91
2022-12-18T06:23:43.787Z,102801.09
2022-12-18T06:26:12.341Z,102796.00
2022-12-18T06:28:39.195Z,102796.66
2022-12-18T06:31:06.093Z,102791.53
2022-12-18T06:33:33.491Z,102787.25
2022-12-18T06:36:12.481Z,102776.16
2022-12-18T06:38:41.711Z,102776.09
2022-12-18T06:41:09.707Z,102770.16
2022-12-18T06:43:36.269Z,102776.69
2022-12-18T06:46:04.404Z,102769.84
2022-12-18T06:48:31.425Z,102769.00
2022-12-18T06:50:58.071Z,102761.31
2022-12-18T06:53:24.834Z,102760.44
2022-12-18T06:55:51.382Z,102757.81
2022-12-18T06:58:18.184Z,102761.19
2022-12-18T07:00:44.622Z,102745.09
2022-12-18T07:03:12.328Z,102742.56
2022-12-18T07:05:41.843Z,102744.22
2022-12-18T07:08:08.306Z,102745.03
2022-12-18T07:10:35.261Z,102744.16
2022-12-18T07:13:01.666Z,102738.06
2022-12-18T07:15:28.079Z,102736.34
2022-12-18T07:17:54.557Z,102733.84
2022-12-18T07:20:21.021Z,102741.47
2022-12-18T07:22:50.799Z,102728.78
2022-12-18T07:25:19.680Z,102728.78
2022-12-18T07:27:46.095Z,102738.94
2022-12-18T07:30:12.680Z,102728.75
2022-12-18T07:32:39.084Z,102727.13
2022-12-18T07:35:05.708Z,102716.97
2022-12-18T07:37:32.108Z,102712.63
2022-12-18T07:39:58.565Z,102705.84
2022-12-18T07:42:33.799Z,102715.16
2022-12-18T07:45:01.343Z,102711.78
2022-12-18T07:47:29.107Z,102706.69
2022-12-18T07:49:56.532Z,102692.34
2022-12-18T07:52:26.252Z,102693.28
2022-12-18T07:54:52.933Z,102688.22
2022-12-18T07:57:48.359Z,102685.78
2022-12-18T08:00:06.429Z,102685.78
2022-12-18T08:02:33.151Z,102686.72
2022-12-18T08:04:59.790Z,102678.38
2022-12-18T08:07:26.154Z,102681.78
2022-12-18T08:09:52.588Z,102666.63
2022-12-18T08:12:19.149Z,102672.72
2022-12-18T08:14:45.540Z,102662.78
2022-12-18T08:17:11.974Z,102663.81
2022-12-18T08:19:38.360Z,102664.00
2022-12-18T08:22:04.802Z,102670.16
2022-12-18T08:24:31.604Z,102682.16
2022-12-18T08:27:27.850Z,102689.97
2022-12-18T08:29:44.635Z,102696.00
2022-12-18T08:32:11.251Z,102696.16
2022-12-18T08:34:37.754Z,102701.28
2022-12-18T08:37:04.467Z,102698.88
2022-12-18T08:39:31.593Z,102693.00
2022-12-18T08:42:16.577Z,102704.09
2022-12-18T08:44:43.040Z,102694.88
2022-12-18T08:47:09.481Z,102684.03
2022-12-18T08:49:36.178Z,102697.66
2022-12-18T08:52:03.739Z,102692.69
2022-12-18T08:54:30.395Z,102692.03
2022-12-18T08:56:56.796Z,102691.38
2022-12-18T08:59:24.199Z,102688.28
2022-12-18T09:01:51.034Z,102693.63
2022-12-18T09:04:18.176Z,102700.66
2022-12-18T09:06:44.657Z,102700.03
2022-12-18T09:09:11.930Z,102697.75
2022-12-18T09:11:38.473Z,102684.47
2022-12-18T09:14:05.044Z,102684.66
2022-12-18T09:16:32.995Z,102678.97
2022-12-18T09:19:00.763Z,102672.41
2022-12-18T09:21:29.902Z,102670.03
2022-12-18T09:23:57.278Z,102680.47
2022-12-18T09:26:25.275Z,102680.59
2022-12-18T09:28:51.922Z,102682.50
2022-12-18T09:31:21.839Z,102685.28
2022-12-18T09:33:48.333Z,102684.56
2022-12-18T09:36:17.624Z,102666.84
2022-12-18T09:38:44.652Z,102654.31
2022-12-18T09:41:44.423Z,102657.94
2022-12-18T09:44:26.035Z,102654.63
2022-12-18T09:46:55.668Z,102648.88
2022-12-18T09:49:26.258Z,102656.75
2022-12-18T09:52:00.959Z,102655.16
2022-12-18T09:54:34.615Z,102648.59
2022-12-18T09:57:01.017Z,102635.19
2022-12-18T09:59:38.014Z,102631.22
2022-12-18T10:02:32.097Z,102637.38
2022-12-18T10:05:11.365Z,102635.00
2022-12-18T10:07:49.670Z,102633.53
2022-12-18T10:10:38.908Z,102632.94
2022-12-18T10:13:31.129Z,102639.09
2022-12-18T10:16:14.250Z,102633.41
2022-12-18T10:18:55.573Z,102625.94
2022-12-18T10:21:32.970Z,102626.16
2022-12-18T10:24:18.038Z,102620.34
2022-12-18T10:26:45.373Z,102615.38
2022-12-18T10:29:17.328Z,102615.53
2022-12-18T10:31:44.190Z,102619.88
2022-12-18T10:34:17.132Z,102610.66
2022-12-18T10:36:43.752Z,102603.94
2022-12-18T10:39:24.828Z,102606.69
2022-12-18T10:41:51.589Z,102616.94
2022-12-18T10:44:21.564Z,102613.63
2022-12-18T10:46:51.218Z,102607.84
2022-12-18T10:49:25.064Z,102596.09
2022-12-18T10:52:04.358Z,102589.38
2022-12-18T10:54:32.851Z,102592.06
2022-12-18T10:57:30.265Z,102591.34
2022-12-18T10:59:59.192Z,102582.09
2022-12-18T11:02:35.843Z,102581.41
2022-12-18T11:05:03.613Z,102579.78
2022-12-18T11:07:50.978Z,102567.22
2022-12-18T11:10:20.121Z,102563.06
2022-12-18T11:12:47.271Z,102556.38
2022-12-18T11:15:27.363Z,102547.19
2022-12-18T11:17:53.972Z,102549.00
2022-12-18T11:20:34.639Z,102544.03
2022-12-18T11:23:11.421Z,102545.88
2022-12-18T11:25:37.891Z,102535.81
2022-12-18T11:28:07.043Z,102527.41
2022-12-18T11:30:37.931Z,102530.06
2022-12-18T11:33:17.373Z,102527.72
2022-12-18T11:35:53.226Z,102532.09
2022-12-18T11:38:33.592Z,102544.06
2022-12-18T11:41:15.653Z,102539.09
2022-12-18T11:43:50.596Z,102536.72
2022-12-18T11:46:30.348Z,102528.28
2022-12-18T11:49:07.269Z,102532.66
2022-12-18T11:51:42.465Z,102525.94
2022-12-18T11:54:16.501Z,102509.88
2022-12-18T11:57:02.254Z,102513.34
2022-12-18T11:59:48.713Z,102508.25
2022-12-18T12:02:43.554Z,102504.06
2022-12-18T12:05:38.178Z,102501.53
2022-12-18T12:08:13.835Z,102494.72
2022-12-18T12:10:56.680Z,102483.78
2022-12-18T12:13:39.772Z,102471.03
2022-12-18T12:16:23.266Z,102467.72
2022-12-18T12:19:01.706Z,102473.75
2022-12-18T12:21:38.291Z,102473.75
2022-12-18T12:24:29.525Z,102466.22
2022-12-18T12:27:11.656Z,102460.31
2022-12-18T12:29:47.542Z,102463.81
2022-12-18T12:32:55.894Z,102459.66
2022-12-18T12:35:41.241Z,102454.59
2022-12-18T12:38:13.870Z,102451.25
2022-12-18T12:40:58.522Z,102450.44
2022-12-18T12:43:37.332Z,102446.25
2022-12-18T12:46:07.405Z,102435.19
2022-12-18T12:48:54.163Z,102430.19
2022-12-18T12:51:30.748Z,102430.22
2022-12-18T12:53:58.866Z,102424.31
2022-12-18T12:56:35.849Z,102412.41
2022-12-18T12:59:10.101Z,102418.41
2022-12-18T13:02:04.210Z,102421.91
2022-12-18T13:04:36.811Z,102421.91
2022-12-18T13:07:21.235Z,102421.13
2022-12-18T13:10:23.718Z,102418.63
2022-12-18T13:13:10.551Z,102424.56
2022-12-18T13:16:06.709Z,102426.28
2022-12-18T13:18:34.298Z,102415.22
2022-12-18T13:21:03.341Z,102418.69
2022-12-18T13:23:40.745Z,102421.28
2022-12-18T13:26:07.511Z,102418.78
2022-12-18T13:28:33.867Z,102411.97
2022-12-18T13:31:02.177Z,102408.56
2022-12-18T13:33:34.590Z,102412.88
2022-12-18T13:36:22.800Z,102400.97
2022-12-18T13:39:30.077Z,102406.13
2022-12-18T13:42:06.935Z,102390.78
2022-12-18T13:44:42.888Z,102377.19
2022-12-18T13:47:34.293Z,102382.34
2022-12-18T13:50:03.125Z,102369.53
2022-12-18T13:52:37.048Z,102361.91
2022-12-18T13:55:16.550Z,102357.66
2022-12-18T13:57:42.965Z,102357.66
2022-12-18T14:00:30.367Z,102351.75
2022-12-18T14:02:58.584Z,102353.41
2022-12-18T14:05:26.419Z,102344.94
2022-12-18T14:07:54.729Z,102344.94
2022-12-18T14:13:11.199Z,102340.75
2022-12-18T14:15:44.458Z,102333.13
2022-12-18T14:18:26.218Z,102339.13
2022-12-18T14:20:55.945Z,102330.63
2022-12-18T14:23:31.349Z,102326.38
2022-12-18T14:26:02.231Z,102321.28
2022-12-18T14:28:32.147Z,102313.66
2022-12-18T14:30:58.640Z,102313.69
2022-12-18T14:33:27.380Z,102315.41
2022-12-18T14:36:01.784Z,102303.50
2022-12-18T14:38:35.176Z,102295.03
2022-12-18T14:41:11.264Z,102297.63
2022-12-18T14:43:40.319Z,102301.03
2022-12-18T14:46:38.781Z,102305.28
2022-12-18T14:49:26.894Z,102299.38
2022-12-18T14:52:20.719Z,102291.75
2022-12-18T14:54:48.582Z,102279.78
2022-12-18T14:57:27.400Z,102281.53
2022-12-18T14:59:53.964Z,102284.09
2022-12-18T15:02:27.440Z,102284.91
2022-12-18T15:05:15.587Z,102282.34
2022-12-18T15:07:47.710Z,102284.09
2022-12-18T15:10:14.390Z,102290.88
2022-12-18T15:12:42.042Z,102282.34
2022-12-18T15:15:45.940Z,102282.44
2022-12-18T15:18:29.381Z,102277.31
2022-12-18T15:21:01.168Z,102273.06
2022-12-18T15:23:27.505Z,102279.88
2022-12-18T15:26:03.999Z,102273.94
2022-12-18T15:28:38.166Z,102273.06
2022-12-18T15:31:33.276Z,102272.25
2022-12-18T15:34:23.419Z,102281.66
2022-12-18T15:36:51.719Z,102276.56
2022-12-18T15:39:18.107Z,102264.66
2022-12-18T15:42:04.994Z,102268.91
2022-12-18T15:44:31.808Z,102278.28
2022-12-18T15:46:59.404Z,102281.69
2022-12-18T15:49:25.984Z,102269.75
2022-12-18T15:51:59.107Z,102263.00
2022-12-18T15:54:44.273Z,102259.53
2022-12-18T15:57:24.019Z,102249.38
2022-12-18T15:59:57.324Z,102250.22
2022-12-18T16:02:24.408Z,102239.19
2022-12-18T16:04:52.875Z,102229.78
2022-12-18T16:07:24.897Z,102222.13
2022-12-18T16:09:52.566Z,102220.47
2022-12-18T16:12:25.172Z,102223.03
2022-12-18T16:14:51.579Z,102222.16
2022-12-18T16:17:18.110Z,102221.31
2022-12-18T16:19:44.857Z,102211.13
2022-12-18T16:22:26.350Z,102207.75
2022-12-18T16:24:54.492Z,102195.81
2022-12-18T16:27:21.530Z,102193.25
2022-12-18T16:29:48.229Z,102193.25
2022-12-18T16:32:17.786Z,102186.50
2022-12-18T16:34:45.180Z,102174.56
2022-12-18T16:37:13.813Z,102170.31
2022-12-18T16:39:42.088Z,102167.75
2022-12-18T16:42:17.143Z,102166.94
2022-12-18T16:44:44.377Z,102166.06
2022-12-18T16:47:13.271Z,102169.50
2022-12-18T16:49:41.814Z,102172.94
2022-12-18T16:52:08.483Z,102167.84
2022-12-18T16:54:36.706Z,102170.41
2022-12-18T16:57:05.272Z,102167.03
2022-12-18T16:59:31.929Z,102167.03
2022-12-18T17:01:58.640Z,102159.38
2022-12-18T17:04:25.545Z,102161.09
2022-12-18T17:06:53.776Z,102166.25
2022-12-18T17:09:27.722Z,102165.41
2022-12-18T17:11:55.055Z,102156.94
2022-12-18T17:14:24.909Z,102162.03
2022-12-18T17:17:19.115Z,102165.44
2022-12-18T17:19:39.024Z,102164.59
2022-12-18T17:22:05.456Z,102162.03
2022-12-18T17:24:35.068Z,102159.53
2022-12-18T17:27:02.675Z,102167.19
2022-12-18T17:29:29.272Z,102157.00
2022-12-18T17:31:55.728Z,102159.56
2022-12-18T17:34:23.720Z,102151.03
2022-12-18T17:36:50.122Z,102156.19
2022-12-18T17:39:19.256Z,102157.03
2022-12-18T17:41:46.462Z,102154.50
2022-12-18T17:44:13.227Z,102155.34
2022-12-18T17:46:39.734Z,102163.03
2022-12-18T17:49:06.262Z,102152.88
2022-12-18T17:51:32.807Z,102157.97
2022-12-18T17:53:59.302Z,102162.22
2022-12-18T17:56:25.821Z,102163.97
2022-12-18T17:58:52.409Z,102152.03
2022-12-18T18:01:23.259Z,102148.69
2022-12-18T18:03:52.983Z,102150.34
2022-12-18T18:06:20.463Z,102148.69
2022-12-18T18:08:46.986Z,102152.13
2022-12-18T18:11:34.587Z,102160.63
2022-12-18T18:14:01.769Z,102155.53
2022-12-18T18:16:31.609Z,102158.94
2022-12-18T18:19:00.453Z,102157.25
2022-12-18T18:21:27.951Z,102149.56
2022-12-18T18:23:54.947Z,102156.44
2022-12-18T18:26:22.113Z,102160.69
2022-12-18T18:28:48.995Z,102147.09
2022-12-18T18:31:15.564Z,102153.09
2022-12-18T18:33:42.996Z,102147.13
2022-12-18T18:36:11.286Z,102147.16
2022-12-18T18:38:37.915Z,102136.09
2022-12-18T18:41:05.654Z,102143.75
2022-12-18T18:43:32.765Z,102145.50
2022-12-18T18:46:01.541Z,102140.38
2022-12-18T18:48:30.974Z,102134.44
2022-12-18T18:51:00.603Z,102135.31
2022-12-18T18:53:28.390Z,102127.66
2022-12-18T18:56:32.589Z,102124.28
2022-12-18T18:58:45.611Z,102116.63
2022-12-18T19:01:14.773Z,102126.03
2022-12-18T19:03:42.551Z,102126.91
2022-12-18T19:06:14.770Z,102121.81
2022-12-18T19:08:41.812Z,102120.13
2022-12-18T19:11:36.025Z,102115.03
2022-12-18T19:14:05.468Z,102121.91
2022-12-18T19:16:33.306Z,102122.78
2022-12-18T19:19:02.386Z,102123.69
2022-12-18T19:21:30.481Z,102106.63
2022-12-18T19:24:00.023Z,102110.09
2022-12-18T19:26:28.265Z,102099.84
2022-12-18T19:29:00.886Z,102112.69
2022-12-18T19:31:31.951Z,102107.59
2022-12-18T19:34:00.303Z,102110.16
2022-12-18T19:36:29.859Z,102120.41
2022-12-18T19:38:59.089Z,102116.19
2022-12-18T19:41:29.163Z,102119.66
2022-12-18T19:43:59.605Z,102117.94
2022-12-18T19:46:26.060Z,102131.63
2022-12-18T19:48:52.874Z,102120.56
2022-12-18T19:51:24.806Z,102111.22
2022-12-18T19:53:58.152Z,102124.84
2022-12-18T19:56:27.256Z,102120.59
2022-12-18T19:58:54.945Z,102113.78
2022-12-18T20:01:23.107Z,102109.50
2022-12-18T20:03:52.301Z,102110.34
2022-12-18T20:06:25.658Z,102106.91
2022-12-18T20:08:53.993Z,102101.78
2022-12-18T20:11:24.449Z,102100.94
2022-12-18T20:13:50.873Z,102104.28
2022-12-18T20:16:17.852Z,102106.84
2022-12-18T20:18:44.374Z,102105.94
2022-12-18T20:21:14.060Z,102111.91
2022-12-18T20:23:41.615Z,102109.31
2022-12-18T20:26:08.761Z,102103.38
2022-12-18T20:28:35.542Z,102114.44
2022-12-18T20:31:04.919Z,102115.28
2022-12-18T20:33:31.470Z,102111.03
2022-12-18T20:36:06.762Z,102109.34
2022-12-18T20:38:35.536Z,102111.03
2022-12-18T20:41:07.262Z,102108.47
2022-12-18T20:43:33.746Z,102101.63
2022-12-18T20:46:02.029Z,102100.81
2022-12-18T20:48:29.722Z,102091.38
2022-12-18T20:51:00.251Z,102075.19
2022-12-18T20:53:30.127Z,102097.31
2022-12-18T20:55:56.616Z,102088.84
2022-12-18T20:58:23.315Z,102087.94
2022-12-18T21:00:50.232Z,102092.22
2022-12-18T21:03:18.043Z,102083.69
2022-12-18T21:05:44.562Z,102071.78
2022-12-18T21:08:11.085Z,102064.09
2022-12-18T21:10:41.617Z,102058.97
2022-12-18T21:13:08.698Z,102047.91
2022-12-18T21:15:36.808Z,102050.44
2022-12-18T21:18:04.260Z,102048.75
2022-12-18T21:20:30.670Z,102043.63
2022-12-18T21:23:03.448Z,102037.69
2022-12-18T21:25:42.806Z,102040.25
2022-12-18T21:28:09.283Z,102043.69
2022-12-18T21:30:35.745Z,102036.03
2022-12-18T21:33:02.362Z,102030.06
2022-12-18T21:35:29.277Z,102021.56
2022-12-18T21:37:58.464Z,102031.78
2022-12-18T21:40:25.252Z,102025.00
2022-12-18T21:43:10.325Z,102034.38
2022-12-18T21:45:40.371Z,102025.00
2022-12-18T21:48:06.947Z,102025.03
2022-12-18T21:50:33.364Z,102015.66
2022-12-18T21:53:00.099Z,102012.25
2022-12-18T21:55:26.610Z,102006.28
2022-12-18T21:57:54.664Z,101999.44
2022-12-18T22:00:21.205Z,102000.34
2022-12-18T22:03:17.189Z,101972.22
2022-12-18T22:05:35.520Z,101978.19
2022-12-18T22:08:01.966Z,101985.91
2022-12-18T22:10:28.549Z,101984.19
2022-12-18T22:12:55.212Z,101979.94
2022-12-18T22:15:22.032Z,101973.97
2022-12-18T22:17:59.519Z,101969.75
2022-12-18T22:20:27.150Z,101967.19
2022-12-18T22:22:53.570Z,101966.38
2022-12-18T22:25:20.042Z,101957.84
2022-12-18T22:28:06.426Z,101958.69
2022-12-18T22:30:33.369Z,101937.38
2022-12-18T22:33:00.359Z,101918.63
2022-12-18T22:35:26.790Z,101916.09
2022-12-18T22:37:53.490Z,101913.53
2022-12-18T22:40:26.503Z,101907.56
2022-12-18T22:42:54.570Z,101896.47
2022-12-18T22:45:25.731Z,101887.97
2022-12-18T22:47:52.704Z,101884.59
2022-12-18T22:50:19.757Z,101884.56
2022-12-18T22:52:46.210Z,101876.91
2022-12-18T22:55:12.689Z,101885.44
2022-12-18T22:57:39.407Z,101888.91
2022-12-18T23:00:09.248Z,101894.84
2022-12-18T23:02:35.866Z,101897.41
2022-12-18T23:05:02.639Z,101882.94
2022-12-18T23:07:29.296Z,101874.41
2022-12-18T23:10:00.722Z,101864.19
2022-12-18T23:12:27.791Z,101853.97
2022-12-18T23:14:54.522Z,101842.03
2022-12-18T23:17:20.888Z,101840.34
2022-12-18T23:19:49.273Z,101841.19
2022-12-18T23:22:16.928Z,101846.34
2022-12-18T23:24:43.521Z,101843.78
2022-12-18T23:27:11.731Z,101846.38
2022-12-18T23:29:41.873Z,101843.81
2022-12-18T23:32:08.324Z,101838.72
2022-12-18T23:34:34.785Z,101841.28
2022-12-18T23:37:03.554Z,101838.75
2022-12-18T23:39:30.449Z,101831.09
2022-12-18T23:42:00.870Z,101807.16
2022-12-18T23:44:28.068Z,101797.81
2022-12-18T23:46:55.015Z,101793.53
2022-12-18T23:49:21.763Z,101790.13
2022-12-18T23:51:48.426Z,101787.56
2022-12-18T23:54:14.964Z,101801.22
2022-12-18T23:56:44.253Z,101796.13
2022-12-18T23:59:10.822Z,101791.88
